Time;durP1;ratioP1;P1;durP2;ratioP2;P2;SDS_P1;SDS_P2;PMS_P1;PMS_P2;Temp;Humidity;BMP_temperature;BMP_pressure;BME280_temperature;BME280_humidity;BME280_pressure;Samples;Min_cycle;Max_cycle;Signal;HPM_P1;HPM_P2
2023/01/27 00:00:40;;;;;;;;;;;20.60;81.00;;;;;;5094815;28;20058;-44
2023/01/27 00:03:05;;;;;;;;;;;20.60;81.00;;;;;;5095358;28;19908;-45
2023/01/27 00:05:31;;;;;;;;;;;20.60;80.70;;;;;;5095396;28;19910;-44
2023/01/27 00:07:57;;;;;;;;;;;20.60;80.80;;;;;;5094945;28;19904;-43
2023/01/27 00:10:23;;;;;;;;;;;20.60;80.70;;;;;;5094855;28;20002;-43
2023/01/27 00:15:33;;;;;;;;;;;20.60;80.70;;;;;;5094605;28;19915;-44
2023/01/27 00:17:58;;;;;;;;;;;20.60;80.60;;;;;;5094468;28;20270;-43
2023/01/27 00:26:05;;;;;;;;;;;20.70;80.40;;;;;;5094035;28;20326;-47
2023/01/27 00:28:34;;;;;;;;;;;20.80;80.40;;;;;;5094665;28;19904;-44
2023/01/27 00:30:59;;;;;;;;;;;20.80;80.10;;;;;;5094578;28;19965;-48
2023/01/27 00:33:25;;;;;;;;;;;20.80;80.20;;;;;;5094837;28;19904;-44
2023/01/27 00:35:58;;;;;;;;;;;20.80;80.30;;;;;;5094528;28;19909;-44
2023/01/27 00:38:24;;;;;;;;;;;20.80;80.30;;;;;;5094574;28;20346;-45
2023/01/27 00:41:14;;;;;;;;;;;20.80;80.20;;;;;;5094380;28;19911;-43
2023/01/27 00:43:35;;;;;;;;;;;20.80;80.40;;;;;;5094115;28;19935;-44
2023/01/27 00:46:01;;;;;;;;;;;20.80;80.30;;;;;;5094120;28;19908;-48
2023/01/27 00:48:26;;;;;;;;;;;20.90;80.40;;;;;;5059501;28;19910;-45
2023/01/27 00:50:52;;;;;;;;;;;20.80;80.30;;;;;;5094078;28;19908;-45
2023/01/27 00:53:17;;;;;;;;;;;20.80;80.30;;;;;;5094035;28;19910;-45
2023/01/27 00:55:43;;;;;;;;;;;20.70;80.60;;;;;;5094389;28;19919;-47
2023/01/27 00:58:08;;;;;;;;;;;20.60;80.80;;;;;;5093887;28;20320;-45
2023/01/27 01:00:34;;;;;;;;;;;20.50;81.10;;;;;;5094274;28;19904;-45
2023/01/27 01:02:59;;;;;;;;;;;20.40;81.30;;;;;;5093887;28;19904;-46
2023/01/27 01:05:24;;;;;;;;;;;20.30;81.40;;;;;;5094230;28;19904;-43
2023/01/27 01:07:50;;;;;;;;;;;20.30;81.50;;;;;;5094162;28;19904;-43
2023/01/27 01:10:15;;;;;;;;;;;20.30;81.60;;;;;;5076207;28;19904;-43
2023/01/27 01:12:41;;;;;;;;;;;20.30;81.60;;;;;;5093879;28;19904;-45
2023/01/27 01:15:07;;;;;;;;;;;20.40;81.40;;;;;;5094135;28;20357;-44
2023/01/27 01:17:32;;;;;;;;;;;20.50;81.10;;;;;;5094229;28;19916;-46
2023/01/27 01:19:57;;;;;;;;;;;20.60;80.90;;;;;;5094131;28;19911;-43
2023/01/27 01:22:23;;;;;;;;;;;20.70;80.60;;;;;;5093787;28;19905;-45
2023/01/27 01:24:48;;;;;;;;;;;20.80;80.40;;;;;;5093755;28;19991;-45
2023/01/27 01:27:14;;;;;;;;;;;20.90;80.30;;;;;;5094006;28;19974;-43
2023/01/27 01:29:39;;;;;;;;;;;20.90;80.10;;;;;;5093970;28;20002;-45
2023/01/27 01:32:08;;;;;;;;;;;20.90;80.20;;;;;;5093730;28;20297;-46
2023/01/27 01:34:34;;;;;;;;;;;21.00;79.90;;;;;;5093519;28;20366;-44
2023/01/27 01:37:00;;;;;;;;;;;21.00;80.20;;;;;;5096785;28;20288;-45
2023/01/27 01:39:25;;;;;;;;;;;20.90;80.20;;;;;;5097562;28;19908;-47
2023/01/27 01:41:51;;;;;;;;;;;20.90;80.30;;;;;;5097840;28;19957;-44
2023/01/27 01:44:21;;;;;;;;;;;20.90;80.30;;;;;;5079685;28;19904;-45
2023/01/27 01:46:46;;;;;;;;;;;20.80;80.70;;;;;;5097669;28;19904;-45
2023/01/27 01:49:12;;;;;;;;;;;20.70;80.90;;;;;;5097572;28;20224;-43
2023/01/27 01:51:43;;;;;;;;;;;20.60;81.10;;;;;;5097609;28;19911;-46
2023/01/27 01:54:41;;;;;;;;;;;20.60;81.30;;;;;;5097560;28;19904;-42
2023/01/27 01:57:17;;;;;;;;;;;20.50;81.60;;;;;;5062945;28;19915;-42
2023/01/27 01:59:51;;;;;;;;;;;20.50;81.70;;;;;;5097718;28;19912;-45
2023/01/27 02:02:19;;;;;;;;;;;20.50;81.70;;;;;;5096944;28;19905;-43
2023/01/27 02:04:47;;;;;;;;;;;20.60;81.50;;;;;;5097439;28;20199;-43
2023/01/27 02:07:17;;;;;;;;;;;20.60;81.20;;;;;;5097362;28;19944;-43
2023/01/27 02:09:42;;;;;;;;;;;20.70;80.90;;;;;;5097202;28;19908;-43
2023/01/27 02:12:07;;;;;;;;;;;20.80;80.80;;;;;;5097169;28;19991;-43
2023/01/27 02:14:33;;;;;;;;;;;20.90;80.60;;;;;;5096980;28;19904;-43
2023/01/27 02:16:59;;;;;;;;;;;20.90;80.50;;;;;;5096751;28;20307;-44
2023/01/27 02:19:38;;;;;;;;;;;21.00;80.20;;;;;;5097011;28;19908;-42
2023/01/27 02:22:05;;;;;;;;;;;21.10;79.90;;;;;;5096766;28;19912;-43
2023/01/27 02:24:36;;;;;;;;;;;21.10;79.80;;;;;;5097264;28;19926;-43
2023/01/27 02:27:01;;;;;;;;;;;21.10;79.70;;;;;;5096957;28;20444;-44
2023/01/27 02:29:27;;;;;;;;;;;21.00;79.90;;;;;;5096610;28;19908;-46
2023/01/27 02:31:53;;;;;;;;;;;20.90;80.20;;;;;;5096552;28;19904;-45
2023/01/27 02:34:20;;;;;;;;;;;20.80;80.60;;;;;;5096766;28;19904;-45
2023/01/27 02:36:49;;;;;;;;;;;20.70;81.10;;;;;;5096441;28;19916;-46
2023/01/27 02:39:17;;;;;;;;;;;20.50;81.20;;;;;;5096757;28;19919;-43
2023/01/27 02:41:44;;;;;;;;;;;20.30;81.60;;;;;;5096739;28;19908;-43
2023/01/27 02:44:10;;;;;;;;;;;20.20;82.10;;;;;;5096243;28;19990;-45
2023/01/27 02:46:36;;;;;;;;;;;20.10;82.40;;;;;;5096030;28;19943;-44
2023/01/27 02:49:02;;;;;;;;;;;20.10;82.60;;;;;;5095610;28;19994;-44
2023/01/27 02:51:27;;;;;;;;;;;20.00;82.80;;;;;;5096112;28;20348;-43
2023/01/27 02:53:53;;;;;;;;;;;20.00;83.00;;;;;;5096437;28;19910;-43
2023/01/27 02:56:18;;;;;;;;;;;20.00;82.90;;;;;;5096134;28;19957;-43
2023/01/27 02:58:44;;;;;;;;;;;20.00;82.90;;;;;;5095867;28;19908;-44
2023/01/27 03:01:09;;;;;;;;;;;20.10;82.90;;;;;;5095975;28;19908;-43
2023/01/27 03:03:35;;;;;;;;;;;20.10;82.50;;;;;;5095947;28;19912;-45
2023/01/27 03:06:00;;;;;;;;;;;20.20;82.40;;;;;;5096184;28;19911;-44
2023/01/27 03:08:26;;;;;;;;;;;20.30;82.10;;;;;;5096122;28;19998;-43
2023/01/27 03:10:52;;;;;;;;;;;20.40;81.70;;;;;;5077978;28;20239;-45
2023/01/27 03:13:24;;;;;;;;;;;20.50;81.40;;;;;;5096007;28;19904;-45
2023/01/27 03:18:34;;;;;;;;;;;20.90;81.00;;;;;;5095785;28;19927;-43
2023/01/27 03:21:01;;;;;;;;;;;20.90;80.60;;;;;;5095832;28;19912;-43
2023/01/27 03:23:26;;;;;;;;;;;21.00;80.70;;;;;;5095819;28;19904;-45
2023/01/27 03:25:52;;;;;;;;;;;20.90;80.60;;;;;;5095772;28;20044;-45
2023/01/27 03:28:17;;;;;;;;;;;20.90;80.60;;;;;;5095762;28;19911;-45
2023/01/27 03:30:43;;;;;;;;;;;20.90;80.70;;;;;;5095729;28;19990;-43
2023/01/27 03:33:08;;;;;;;;;;;20.80;80.90;;;;;;5095317;28;19908;-44
2023/01/27 03:35:37;;;;;;;;;;;20.80;81.10;;;;;;5095573;28;19911;-45
2023/01/27 03:46:22;;;;;;;;;;;20.60;81.40;;;;;;5095259;28;19912;-44
2023/01/27 03:48:51;;;;;;;;;;;20.60;81.50;;;;;;5095008;28;19904;-45
2023/01/27 03:51:18;;;;;;;;;;;20.60;81.40;;;;;;5094969;28;20404;-47
2023/01/27 03:53:44;;;;;;;;;;;20.60;81.50;;;;;;5095037;28;19908;-44
2023/01/27 03:56:09;;;;;;;;;;;20.70;81.40;;;;;;5095539;28;19911;-44
2023/01/27 03:58:36;;;;;;;;;;;20.70;81.40;;;;;;5094799;28;19912;-46
2023/01/27 04:01:02;;;;;;;;;;;20.70;81.20;;;;;;5094852;28;19904;-45
2023/01/27 04:09:01;;;;;;;;;;;20.80;81.00;;;;;;5094736;28;19930;-44
2023/01/27 04:14:11;;;;;;;;;;;20.90;80.80;;;;;;5094616;28;20007;-45
2023/01/27 04:16:37;;;;;;;;;;;20.90;80.70;;;;;;5094812;28;20089;-46
2023/01/27 04:19:03;;;;;;;;;;;20.90;80.70;;;;;;5094444;28;20007;-45
2023/01/27 04:21:29;;;;;;;;;;;20.90;80.90;;;;;;5094412;28;19994;-43
2023/01/27 04:23:54;;;;;;;;;;;20.80;80.70;;;;;;5094672;28;20014;-43
2023/01/27 04:26:20;;;;;;;;;;;20.80;81.00;;;;;;5094366;28;19904;-43
2023/01/27 04:28:46;;;;;;;;;;;20.80;80.80;;;;;;5094386;28;19953;-43
2023/01/27 04:31:12;;;;;;;;;;;20.80;81.00;;;;;;5094316;28;19908;-43
2023/01/27 04:33:37;;;;;;;;;;;20.70;81.10;;;;;;5094572;28;19908;-44
2023/01/27 04:36:03;;;;;;;;;;;20.70;81.30;;;;;;5094690;28;20287;-43
2023/01/27 04:38:28;;;;;;;;;;;20.80;81.30;;;;;;5094549;28;19970;-44
2023/01/27 04:40:55;;;;;;;;;;;20.70;81.30;;;;;;5093791;28;20328;-46
2023/01/27 04:43:21;;;;;;;;;;;20.70;81.20;;;;;;5094418;28;19999;-45
2023/01/27 04:45:46;;;;;;;;;;;20.70;81.30;;;;;;5076216;28;19904;-43
2023/01/27 04:48:12;;;;;;;;;;;20.70;81.10;;;;;;5094420;28;20010;-43
2023/01/27 04:50:37;;;;;;;;;;;20.80;81.00;;;;;;5094010;28;19908;-43
2023/01/27 04:53:03;;;;;;;;;;;20.70;81.10;;;;;;5093985;28;19910;-45
2023/01/27 04:55:28;;;;;;;;;;;20.80;81.50;;;;;;5093970;28;20003;-48
2023/01/27 04:57:54;;;;;;;;;;;20.80;81.10;;;;;;5094110;28;19908;-45
2023/01/27 05:00:19;;;;;;;;;;;20.80;80.80;;;;;;5092789;28;20389;-44
2023/01/27 05:02:45;;;;;;;;;;;20.90;81.20;;;;;;5093850;28;20379;-45
2023/01/27 05:05:10;;;;;;;;;;;20.90;80.50;;;;;;5094027;28;20380;-43
2023/01/27 05:07:37;;;;;;;;;;;20.90;80.20;;;;;;5093864;28;19908;-46
2023/01/27 05:10:02;;;;;;;;;;;21.00;80.20;;;;;;5093844;28;19919;-45
2023/01/27 05:12:28;;;;;;;;;;;21.10;80.10;;;;;;5097953;28;20270;-45
2023/01/27 05:14:53;;;;;;;;;;;21.10;80.00;;;;;;5097973;28;20351;-43
2023/01/27 05:17:19;;;;;;;;;;;21.00;80.20;;;;;;5097941;28;19920;-44
2023/01/27 05:19:44;;;;;;;;;;;21.00;80.10;;;;;;5097537;28;19912;-47
2023/01/27 05:22:10;;;;;;;;;;;21.00;80.40;;;;;;5097633;28;19908;-44
2023/01/27 05:24:37;;;;;;;;;;;21.00;80.10;;;;;;5097714;28;19913;-46
2023/01/27 05:27:02;;;;;;;;;;;21.00;80.20;;;;;;5096553;28;19957;-44
2023/01/27 05:29:28;;;;;;;;;;;21.10;80.10;;;;;;5098100;28;19956;-48
2023/01/27 05:31:53;;;;;;;;;;;21.10;80.10;;;;;;5106854;28;19915;-44
2023/01/27 05:34:19;;;;;;;;;;;21.10;80.10;;;;;;5098108;28;19912;-45
2023/01/27 05:36:44;;;;;;;;;;;21.10;80.10;;;;;;5083639;28;20408;-45
2023/01/27 05:39:10;;;;;;;;;;;21.10;80.20;;;;;;5097338;28;19916;-47
2023/01/27 05:41:36;;;;;;;;;;;21.10;80.20;;;;;;5097269;28;19912;-44
2023/01/27 05:44:02;;;;;;;;;;;21.00;80.30;;;;;;5097149;28;19908;-44
2023/01/27 05:46:28;;;;;;;;;;;21.00;80.40;;;;;;5094851;28;20013;-43
2023/01/27 05:48:55;;;;;;;;;;;20.90;80.50;;;;;;5094455;28;20321;-43
2023/01/27 05:51:21;;;;;;;;;;;20.90;80.50;;;;;;5097528;28;19938;-45
2023/01/27 05:53:47;;;;;;;;;;;20.80;80.80;;;;;;5097753;28;19920;-44
2023/01/27 05:56:13;;;;;;;;;;;20.80;81.00;;;;;;5117693;28;19973;-45
2023/01/27 05:58:39;;;;;;;;;;;20.30;67.50;;;;;;5089376;28;19918;-44
2023/01/27 06:01:09;;;;;;;;;;;20.10;73.00;;;;;;5103686;28;19916;-44
2023/01/27 06:03:35;;;;;;;;;;;20.30;76.10;;;;;;5096018;28;19914;-43
2023/01/27 06:06:00;;;;;;;;;;;20.50;76.40;;;;;;5096980;28;19912;-45
2023/01/27 06:08:26;;;;;;;;;;;20.60;76.20;;;;;;5091047;28;19905;-48
2023/01/27 06:10:52;;;;;;;;;;;20.90;76.10;;;;;;5089021;28;20319;-45
2023/01/27 06:13:18;;;;;;;;;;;21.00;75.20;;;;;;5098961;28;19927;-48
2023/01/27 06:15:44;;;;;;;;;;;21.00;75.30;;;;;;5083728;28;19916;-43
2023/01/27 06:18:10;;;;;;;;;;;21.10;77.10;;;;;;5095576;28;19912;-44
2023/01/27 06:20:36;;;;;;;;;;;21.00;77.50;;;;;;5096439;28;19918;-45
2023/01/27 06:23:02;;;;;;;;;;;20.90;77.90;;;;;;5094715;28;19908;-43
2023/01/27 06:25:27;;;;;;;;;;;20.80;78.40;;;;;;5096196;28;19959;-44
2023/01/27 06:27:55;;;;;;;;;;;20.70;78.70;;;;;;5096622;28;19915;-44
2023/01/27 06:30:21;;;;;;;;;;;20.60;79.00;;;;;;5078651;28;19912;-46
2023/01/27 06:32:46;;;;;;;;;;;20.60;79.00;;;;;;5096140;28;19945;-44
2023/01/27 06:35:12;;;;;;;;;;;20.70;79.10;;;;;;5082199;28;20074;-43
2023/01/27 06:37:37;;;;;;;;;;;20.70;79.00;;;;;;5096044;28;19916;-47
2023/01/27 06:40:03;;;;;;;;;;;20.80;78.90;;;;;;5095893;28;19911;-42
2023/01/27 06:42:29;;;;;;;;;;;20.90;78.70;;;;;;5096280;28;19944;-43
2023/01/27 06:44:54;;;;;;;;;;;21.00;78.60;;;;;;5096288;28;20304;-47
2023/01/27 06:47:20;;;;;;;;;;;21.00;78.60;;;;;;5078308;28;19912;-45
2023/01/27 06:49:45;;;;;;;;;;;21.00;78.60;;;;;;5096330;28;19908;-48
2023/01/27 06:52:11;;;;;;;;;;;20.90;78.90;;;;;;5096236;28;19904;-47
2023/01/27 06:54:36;;;;;;;;;;;20.90;79.10;;;;;;5095640;28;19989;-47
2023/01/27 06:57:02;;;;;;;;;;;20.80;79.10;;;;;;5077422;28;19915;-47
2023/01/27 06:59:27;;;;;;;;;;;20.70;79.40;;;;;;5095822;28;20339;-44
2023/01/27 07:01:53;;;;;;;;;;;20.70;79.60;;;;;;5078146;28;20266;-44
2023/01/27 07:04:18;;;;;;;;;;;20.60;79.90;;;;;;5095831;28;19905;-46
2023/01/27 07:06:44;;;;;;;;;;;20.50;80.00;;;;;;5081297;28;19977;-42
2023/01/27 07:09:10;;;;;;;;;;;20.60;80.50;;;;;;5101753;28;19944;-43
2023/01/27 07:11:35;;;;;;;;;;;20.60;80.20;;;;;;5116237;28;19943;-44
2023/01/27 07:14:01;;;;;;;;;;;20.60;80.10;;;;;;5108710;28;19915;-48
2023/01/27 07:16:27;;;;;;;;;;;20.60;79.90;;;;;;5110371;28;19924;-43
2023/01/27 07:18:52;;;;;;;;;;;20.80;79.80;;;;;;5109219;28;19916;-43
2023/01/27 07:21:18;;;;;;;;;;;20.90;79.30;;;;;;5113342;28;19919;-42
2023/01/27 07:23:43;;;;;;;;;;;21.10;78.80;;;;;;5095367;28;19912;-44
2023/01/27 07:26:09;;;;;;;;;;;21.30;79.30;;;;;;5079947;28;19964;-43
2023/01/27 07:28:34;;;;;;;;;;;21.40;78.80;;;;;;5106897;28;19999;-45
2023/01/27 07:31:00;;;;;;;;;;;21.40;78.50;;;;;;5094257;28;20429;-46
2023/01/27 07:33:26;;;;;;;;;;;21.30;78.60;;;;;;5102853;28;19963;-42
2023/01/27 07:35:51;;;;;;;;;;;21.20;78.90;;;;;;5096921;28;20337;-44
2023/01/27 07:38:17;;;;;;;;;;;21.10;79.00;;;;;;5093783;28;19920;-44
2023/01/27 07:40:42;;;;;;;;;;;20.90;79.50;;;;;;5094730;28;19912;-44
2023/01/27 07:43:08;;;;;;;;;;;20.80;79.90;;;;;;5095169;28;19908;-43
2023/01/27 07:45:33;;;;;;;;;;;20.70;80.20;;;;;;5094874;28;19908;-45
2023/01/27 07:48:03;;;;;;;;;;;20.60;80.50;;;;;;5095052;28;19908;-44
2023/01/27 07:50:28;;;;;;;;;;;20.50;80.90;;;;;;5094610;28;19908;-46
2023/01/27 07:52:53;;;;;;;;;;;20.60;80.80;;;;;;5096209;28;19927;-44
2023/01/27 07:55:19;;;;;;;;;;;20.70;80.40;;;;;;5106218;28;19961;-46
2023/01/27 07:57:44;;;;;;;;;;;20.90;79.80;;;;;;5094998;28;20377;-43
2023/01/27 08:00:14;;;;;;;;;;;21.10;79.30;;;;;;5094631;28;19908;-43
2023/01/27 08:02:39;;;;;;;;;;;21.30;78.90;;;;;;5094953;28;19908;-44
2023/01/27 08:05:06;;;;;;;;;;;21.40;78.70;;;;;;5094927;28;19916;-44
2023/01/27 08:07:31;;;;;;;;;;;21.40;78.50;;;;;;5092469;28;19995;-43
2023/01/27 08:09:57;;;;;;;;;;;21.40;78.50;;;;;;5095742;28;20008;-44
2023/01/27 08:12:22;;;;;;;;;;;21.30;78.80;;;;;;5094831;28;19908;-43
2023/01/27 08:14:47;;;;;;;;;;;21.10;79.10;;;;;;5094364;28;20366;-42
2023/01/27 08:17:13;;;;;;;;;;;21.00;79.40;;;;;;5094169;28;19904;-44
2023/01/27 08:19:38;;;;;;;;;;;20.90;79.50;;;;;;5094136;28;19999;-45
2023/01/27 08:22:04;;;;;;;;;;;20.80;80.00;;;;;;5094244;28;19983;-42
2023/01/27 08:24:29;;;;;;;;;;;20.70;80.40;;;;;;5094496;28;19904;-45
2023/01/27 08:26:55;;;;;;;;;;;20.70;80.20;;;;;;5094170;28;19915;-46
2023/01/27 08:29:20;;;;;;;;;;;20.80;80.30;;;;;;5094507;28;20257;-43
2023/01/27 08:31:46;;;;;;;;;;;21.00;79.90;;;;;;5094461;28;19905;-44
2023/01/27 08:34:11;;;;;;;;;;;21.10;79.70;;;;;;5094091;28;20401;-44
2023/01/27 08:36:40;;;;;;;;;;;21.30;78.80;;;;;;5093991;28;19908;-43
2023/01/27 08:39:06;;;;;;;;;;;21.50;78.70;;;;;;5093853;28;20319;-43
2023/01/27 08:41:31;;;;;;;;;;;21.50;78.40;;;;;;5094074;28;19904;-45
2023/01/27 08:43:57;;;;;;;;;;;21.50;78.30;;;;;;5094042;28;19904;-44
2023/01/27 08:46:22;;;;;;;;;;;21.50;78.60;;;;;;5093258;28;19908;-46
2023/01/27 08:48:50;;;;;;;;;;;21.40;78.60;;;;;;5093980;28;19904;-43
2023/01/27 08:51:16;;;;;;;;;;;21.20;78.90;;;;;;5093869;28;19908;-43
2023/01/27 08:53:41;;;;;;;;;;;21.00;79.50;;;;;;5093958;28;20022;-44
2023/01/27 08:56:09;;;;;;;;;;;20.90;79.90;;;;;;5093641;28;19908;-42
2023/01/27 08:58:35;;;;;;;;;;;20.80;80.20;;;;;;5093859;28;19911;-43
2023/01/27 09:01:01;;;;;;;;;;;20.60;80.70;;;;;;5093501;28;19958;-46
2023/01/27 09:03:27;;;;;;;;;;;20.60;80.70;;;;;;5093997;28;19927;-47
2023/01/27 09:05:52;;;;;;;;;;;20.70;80.70;;;;;;5094323;28;20363;-46
2023/01/27 09:08:17;;;;;;;;;;;20.80;80.40;;;;;;5093479;28;19904;-43
2023/01/27 09:10:43;;;;;;;;;;;21.10;80.00;;;;;;5102731;28;20268;-46
2023/01/27 09:13:09;;;;;;;;;;;21.30;79.30;;;;;;5098784;28;19904;-43
2023/01/27 09:15:35;;;;;;;;;;;21.50;79.00;;;;;;5096739;28;19951;-48
2023/01/27 09:18:00;;;;;;;;;;;21.50;78.60;;;;;;5113637;28;19918;-50
2023/01/27 09:20:26;;;;;;;;;;;21.50;78.60;;;;;;5114049;28;19982;-46
2023/01/27 09:22:53;;;;;;;;;;;21.50;78.80;;;;;;5094247;28;20467;-46
2023/01/27 09:25:19;;;;;;;;;;;21.30;78.90;;;;;;5086479;28;20362;-49
2023/01/27 09:27:44;;;;;;;;;;;21.20;79.20;;;;;;5093449;28;19909;-44
2023/01/27 09:30:11;;;;;;;;;;;21.10;79.40;;;;;;5093260;28;20244;-48
2023/01/27 09:32:37;;;;;;;;;;;21.00;79.80;;;;;;5075615;28;20003;-44
2023/01/27 09:35:03;;;;;;;;;;;20.90;79.90;;;;;;5075531;28;20015;-43
2023/01/27 09:37:29;;;;;;;;;;;20.90;79.90;;;;;;5093151;28;20427;-46
2023/01/27 09:39:57;;;;;;;;;;;21.00;80.20;;;;;;5093552;28;19912;-45
2023/01/27 09:42:26;;;;;;;;;;;21.10;79.90;;;;;;5073242;28;19913;-44
2023/01/27 09:44:54;;;;;;;;;;;21.30;79.70;;;;;;5091387;28;19912;-44
2023/01/27 09:47:35;;;;;;;;;;;21.30;79.10;;;;;;5086910;28;20011;-47
2023/01/27 09:50:21;;;;;;;;;;;21.50;79.00;;;;;;5096267;28;19951;-47
2023/01/27 09:53:06;;;;;;;;;;;21.60;78.70;;;;;;5084419;28;19909;-48
2023/01/27 09:55:46;;;;;;;;;;;21.80;78.20;;;;;;5093153;28;19908;-44
2023/01/27 09:58:29;;;;;;;;;;;21.80;78.10;;;;;;5096556;28;20422;-46
2023/01/27 10:01:05;;;;;;;;;;;21.60;78.40;;;;;;5097370;28;19908;-47
2023/01/27 10:03:30;;;;;;;;;;;21.50;78.70;;;;;;5096866;28;19981;-43
2023/01/27 10:06:02;;;;;;;;;;;21.30;79.00;;;;;;5096987;28;19944;-44
2023/01/27 10:08:31;;;;;;;;;;;21.20;79.40;;;;;;5096668;28;20010;-43
2023/01/27 10:10:56;;;;;;;;;;;21.00;79.90;;;;;;5096781;28;19908;-45
2023/01/27 10:13:27;;;;;;;;;;;20.90;80.30;;;;;;5099797;28;20014;-46
2023/01/27 10:16:12;;;;;;;;;;;20.80;80.50;;;;;;5117026;28;19911;-44
2023/01/27 10:18:53;;;;;;;;;;;20.80;80.80;;;;;;5117070;28;20018;-44
2023/01/27 10:21:41;;;;;;;;;;;20.80;80.80;;;;;;5095984;28;20271;-44
2023/01/27 10:24:07;;;;;;;;;;;20.90;80.40;;;;;;5096833;28;20267;-46
2023/01/27 10:26:48;;;;;;;;;;;21.10;80.20;;;;;;5096800;28;19916;-46
2023/01/27 10:29:16;;;;;;;;;;;21.20;79.90;;;;;;5096672;28;20006;-46
2023/01/27 10:31:51;;;;;;;;;;;21.50;79.80;;;;;;5096344;28;19959;-48
2023/01/27 10:34:31;;;;;;;;;;;21.80;78.40;;;;;;5096743;28;19912;-44
2023/01/27 10:37:17;;;;;;;;;;;22.00;77.70;;;;;;5094378;28;20386;-48
2023/01/27 10:39:49;;;;;;;;;;;22.10;77.50;;;;;;5092022;28;20349;-44
2023/01/27 10:42:24;;;;;;;;;;;22.10;78.50;;;;;;5103620;28;19913;-43
2023/01/27 10:45:02;;;;;;;;;;;21.80;77.50;;;;;;5095013;28;19943;-43
2023/01/27 10:47:48;;;;;;;;;;;21.60;77.90;;;;;;5105155;28;19919;-45
2023/01/27 10:50:34;;;;;;;;;;;21.40;78.80;;;;;;5062272;28;20339;-42
2023/01/27 10:53:13;;;;;;;;;;;21.10;79.30;;;;;;5076023;28;19913;-42
2023/01/27 10:55:48;;;;;;;;;;;21.00;80.00;;;;;;5092470;28;19940;-42
2023/01/27 10:58:35;;;;;;;;;;;20.80;80.30;;;;;;5094146;28;19927;-42
2023/01/27 11:01:05;;;;;;;;;;;20.60;80.70;;;;;;5093952;28;19908;-43
2023/01/27 11:03:33;;;;;;;;;;;20.50;80.90;;;;;;5094485;28;19935;-42
2023/01/27 11:06:01;;;;;;;;;;;20.50;81.10;;;;;;5095314;28;19912;-45
2023/01/27 11:08:29;;;;;;;;;;;20.50;81.10;;;;;;5098398;28;19990;-41
2023/01/27 11:13:41;;;;;;;;;;;20.90;80.10;;;;;;5110627;28;20393;-41
2023/01/27 11:16:17;;;;;;;;;;;21.10;79.40;;;;;;5108961;28;19912;-43
2023/01/27 11:18:45;;;;;;;;;;;21.30;78.90;;;;;;5085628;28;19919;-42
2023/01/27 11:21:30;;;;;;;;;;;21.50;78.60;;;;;;5111742;28;19911;-44
2023/01/27 11:23:59;;;;;;;;;;;21.50;78.50;;;;;;5097248;28;19916;-42
2023/01/27 11:26:33;;;;;;;;;;;21.50;78.30;;;;;;5095274;28;20018;-42
2023/01/27 11:29:08;;;;;;;;;;;21.40;78.50;;;;;;5110836;28;20371;-43
2023/01/27 11:31:48;;;;;;;;;;;21.40;78.40;;;;;;5107415;28;19912;-46
2023/01/27 11:34:32;;;;;;;;;;;21.40;78.40;;;;;;5107691;28;20363;-44
2023/01/27 11:36:58;;;;;;;;;;;21.40;78.40;;;;;;5091793;28;19927;-43
2023/01/27 11:39:25;;;;;;;;;;;21.40;78.40;;;;;;5087936;28;19916;-43
2023/01/27 11:41:52;;;;;;;;;;;21.40;78.40;;;;;;5094914;28;19916;-43
2023/01/27 11:44:19;;;;;;;;;;;21.40;78.30;;;;;;5076634;28;19908;-43
2023/01/27 11:46:45;;;;;;;;;;;21.50;78.20;;;;;;5075933;28;19935;-44
2023/01/27 11:49:12;;;;;;;;;;;21.60;78.00;;;;;;5096827;28;19923;-45
2023/01/27 11:51:38;;;;;;;;;;;21.70;77.80;;;;;;5081595;28;19916;-44
2023/01/27 11:54:04;;;;;;;;;;;21.70;77.60;;;;;;5092246;28;19958;-42
2023/01/27 11:56:30;;;;;;;;;;;21.80;77.50;;;;;;5095037;28;19914;-43
2023/01/27 11:59:05;;;;;;;;;;;21.70;77.40;;;;;;5094547;28;19939;-42
2023/01/27 12:01:49;;;;;;;;;;;21.70;77.70;;;;;;5094108;28;19914;-44
2023/01/27 12:04:17;;;;;;;;;;;21.50;78.00;;;;;;5094874;28;19908;-43
2023/01/27 12:06:46;;;;;;;;;;;21.40;78.30;;;;;;5094634;28;19920;-43
2023/01/27 12:09:37;;;;;;;;;;;21.20;78.60;;;;;;5094728;28;19952;-43
2023/01/27 12:12:20;;;;;;;;;;;21.10;79.00;;;;;;5072424;28;20006;-43
2023/01/27 12:14:58;;;;;;;;;;;21.00;79.40;;;;;;5087924;28;20369;-43
2023/01/27 12:17:30;;;;;;;;;;;20.90;78.60;;;;;;5083464;28;19908;-44
2023/01/27 12:20:00;;;;;;;;;;;21.10;78.90;;;;;;5094002;28;19908;-42
2023/01/27 12:22:29;;;;;;;;;;;21.30;78.50;;;;;;5092265;28;19995;-42
2023/01/27 12:24:56;;;;;;;;;;;21.40;78.00;;;;;;5076100;28;19915;-43
2023/01/27 12:27:23;;;;;;;;;;;21.50;77.90;;;;;;5094057;28;19916;-42
2023/01/27 12:29:56;;;;;;;;;;;21.60;77.70;;;;;;5094191;28;19930;-44
2023/01/27 12:32:23;;;;;;;;;;;21.60;77.60;;;;;;5094266;28;19912;-42
2023/01/27 12:34:50;;;;;;;;;;;21.60;77.60;;;;;;5094403;28;19908;-44
2023/01/27 12:37:25;;;;;;;;;;;21.50;77.60;;;;;;5093853;28;20007;-43
2023/01/27 12:39:56;;;;;;;;;;;21.50;77.80;;;;;;5093829;28;19912;-42
2023/01/27 12:42:38;;;;;;;;;;;21.40;77.90;;;;;;5093743;28;19954;-43
2023/01/27 12:45:16;;;;;;;;;;;21.40;78.00;;;;;;5093515;28;19908;-43
2023/01/27 12:47:53;;;;;;;;;;;21.40;78.10;;;;;;5093778;28;19913;-41
2023/01/27 12:50:22;;;;;;;;;;;21.40;78.10;;;;;;5094121;28;19920;-42
2023/01/27 12:53:06;;;;;;;;;;;21.40;77.90;;;;;;5094308;28;19908;-42
2023/01/27 12:55:37;;;;;;;;;;;21.40;77.90;;;;;;5093901;28;19908;-42
2023/01/27 12:58:03;;;;;;;;;;;21.50;78.00;;;;;;5092405;28;19919;-43
2023/01/27 13:00:29;;;;;;;;;;;21.50;77.90;;;;;;5092411;28;20399;-43
2023/01/27 13:03:02;;;;;;;;;;;21.40;78.00;;;;;;5093511;28;19915;-44
2023/01/27 13:05:27;;;;;;;;;;;21.40;78.10;;;;;;5086980;28;20006;-42
2023/01/27 13:07:53;;;;;;;;;;;21.30;78.00;;;;;;5097931;28;19939;-42
2023/01/27 13:10:23;;;;;;;;;;;21.40;78.20;;;;;;5102418;28;19955;-43
2023/01/27 13:12:53;;;;;;;;;;;21.30;74.90;;;;;;5087509;28;19955;-42
2023/01/27 13:15:20;;;;;;;;;;;21.20;77.90;;;;;;5070573;28;20380;-43
2023/01/27 13:17:47;;;;;;;;;;;21.20;77.80;;;;;;5078651;28;19963;-43
2023/01/27 13:20:16;;;;;;;;;;;21.20;78.00;;;;;;5092666;28;20398;-41
2023/01/27 13:22:44;;;;;;;;;;;21.30;78.00;;;;;;5093585;28;19915;-42
2023/01/27 13:25:14;;;;;;;;;;;21.30;78.10;;;;;;5100913;28;20447;-42
2023/01/27 13:27:39;;;;;;;;;;;21.40;78.20;;;;;;5080135;28;19919;-42
2023/01/27 13:30:11;;;;;;;;;;;21.40;78.00;;;;;;5093664;28;20359;-45
2023/01/27 13:32:38;;;;;;;;;;;21.40;77.90;;;;;;5077950;28;20371;-41
2023/01/27 13:35:22;;;;;;;;;;;21.40;77.80;;;;;;5097317;28;20008;-42
2023/01/27 13:37:55;;;;;;;;;;;21.40;77.90;;;;;;5097111;28;19920;-42
2023/01/27 13:40:26;;;;;;;;;;;21.40;78.40;;;;;;5097412;28;19919;-41
2023/01/27 13:43:01;;;;;;;;;;;21.30;78.30;;;;;;5092893;28;20311;-42
2023/01/27 13:45:40;;;;;;;;;;;21.30;78.50;;;;;;5076851;28;20359;-44
2023/01/27 13:48:12;;;;;;;;;;;21.20;78.90;;;;;;5090817;28;19918;-42
2023/01/27 13:50:48;;;;;;;;;;;21.10;79.00;;;;;;5097309;28;20018;-42
2023/01/27 13:53:16;;;;;;;;;;;21.00;79.30;;;;;;5097360;28;20277;-45
2023/01/27 13:55:55;;;;;;;;;;;21.00;79.30;;;;;;5097249;28;20274;-42
2023/01/27 13:58:32;;;;;;;;;;;21.00;79.50;;;;;;5095197;28;19923;-42
2023/01/27 14:01:06;;;;;;;;;;;21.00;79.70;;;;;;5094737;28;19983;-41
2023/01/27 14:03:50;;;;;;;;;;;21.10;79.40;;;;;;5094984;28;19995;-44
2023/01/27 14:06:18;;;;;;;;;;;21.20;78.80;;;;;;5094311;28;19944;-41
2023/01/27 14:08:51;;;;;;;;;;;21.40;78.70;;;;;;5094929;28;20248;-42
2023/01/27 14:11:21;;;;;;;;;;;21.40;78.40;;;;;;5094987;28;19912;-42
2023/01/27 14:14:05;;;;;;;;;;;21.50;78.20;;;;;;5078482;28;19977;-44
2023/01/27 14:16:31;;;;;;;;;;;21.50;78.10;;;;;;5096827;28;20037;-42
2023/01/27 14:19:05;;;;;;;;;;;21.50;78.10;;;;;;5096842;28;20011;-42
2023/01/27 14:21:39;;;;;;;;;;;21.50;78.20;;;;;;5096715;28;19931;-42
2023/01/27 14:24:19;;;;;;;;;;;21.40;78.80;;;;;;5096451;28;19915;-42
2023/01/27 14:26:46;;;;;;;;;;;21.30;78.70;;;;;;5096316;28;20282;-42
2023/01/27 14:29:30;;;;;;;;;;;21.20;79.20;;;;;;5096361;28;19956;-43
2023/01/27 14:32:07;;;;;;;;;;;21.10;79.20;;;;;;5096364;28;20339;-41
2023/01/27 14:34:54;;;;;;;;;;;21.10;79.20;;;;;;5096360;28;20313;-42
2023/01/27 14:37:31;;;;;;;;;;;21.10;79.10;;;;;;5096544;28;20332;-41
2023/01/27 14:40:02;;;;;;;;;;;21.20;79.00;;;;;;5096131;28;19913;-41
2023/01/27 14:42:37;;;;;;;;;;;21.20;79.00;;;;;;5095440;28;19969;-41
2023/01/27 14:45:06;;;;;;;;;;;21.10;79.30;;;;;;5077423;28;19942;-42
2023/01/27 14:47:34;;;;;;;;;;;21.00;79.70;;;;;;5096271;28;19953;-40
2023/01/27 14:50:35;;;;;;;;;;;20.80;79.80;;;;;;5096291;28;19915;-42
2023/01/27 14:53:15;;;;;;;;;;;20.70;80.30;;;;;;4994630;28;20427;-43
2023/01/27 14:55:47;;;;;;;;;;;20.60;80.60;;;;;;5066844;28;20318;-41